Time;durP1;ratioP1;P1;durP2;ratioP2;P2;SDS_P1;SDS_P2;PMS_P1;PMS_P2;Temp;Humidity;BMP_temperature;BMP_pressure;BME280_temperature;BME280_humidity;BME280_pressure;Samples;Min_cycle;Max_cycle;Signal;HPM_P1;HPM_P2
2021/04/14 00:01:51;;;;;;;4.05;1.40;;;7.90;66.70;;;;;;5074008;28;20468;-59
2021/04/14 00:04:17;;;;;;;4.00;1.17;;;7.80;66.70;;;;;;5074166;28;20431;-59
2021/04/14 00:06:43;;;;;;;10.55;1.33;;;7.80;66.70;;;;;;5073552;28;20037;-59
2021/04/14 00:09:12;;;;;;;1.00;0.95;;;7.70;66.70;;;;;;5056528;28;20560;-59
2021/04/14 00:11:38;;;;;;;8.25;1.33;;;7.70;66.50;;;;;;5074098;28;20473;-59
2021/04/14 00:14:06;;;;;;;8.15;1.35;;;7.70;66.30;;;;;;5073439;28;20040;-59
2021/04/14 00:16:32;;;;;;;3.80;1.40;;;7.70;66.20;;;;;;5073684;28;20044;-59
2021/04/14 00:18:58;;;;;;;2.20;1.40;;;7.70;66.10;;;;;;5073764;28;20069;-59
2021/04/14 00:21:25;;;;;;;2.88;1.20;;;7.70;66.20;;;;;;5073382;28;20494;-59
2021/04/14 00:23:51;;;;;;;5.85;1.27;;;7.60;66.20;;;;;;5073503;28;20029;-59
2021/04/14 00:26:17;;;;;;;3.28;1.40;;;7.60;66.20;;;;;;5074519;28;20104;-59
2021/04/14 00:28:43;;;;;;;2.78;0.90;;;7.60;66.70;;;;;;5072902;28;20039;-59
2021/04/14 00:31:13;;;;;;;1.02;0.80;;;7.50;67.50;;;;;;5073930;28;20025;-59
2021/04/14 00:33:40;;;;;;;6.05;1.50;;;7.50;67.80;;;;;;5073618;28;20036;-59
2021/04/14 00:36:06;;;;;;;2.63;1.10;;;7.40;67.90;;;;;;5072900;28;20040;-59
2021/04/14 00:38:32;;;;;;;2.20;1.20;;;7.40;68.00;;;;;;5073711;28;20036;-60
2021/04/14 00:41:03;;;;;;;3.20;1.08;;;7.40;68.20;;;;;;5073604;28;20383;-59
2021/04/14 00:43:33;;;;;;;8.07;1.20;;;7.40;68.40;;;;;;5073224;28;20054;-59
2021/04/14 00:45:59;;;;;;;1.42;1.10;;;7.30;68.40;;;;;;5073282;28;20398;-59
2021/04/14 00:48:25;;;;;;;1.23;1.05;;;7.30;68.50;;;;;;5072878;28;20025;-59
2021/04/14 00:50:51;;;;;;;1.15;0.85;;;7.30;68.60;;;;;;5073460;28;20119;-59
2021/04/14 00:53:18;;;;;;;1.20;1.10;;;7.20;68.60;;;;;;5073337;28;20024;-60
2021/04/14 00:55:44;;;;;;;6.32;1.38;;;7.20;68.60;;;;;;5072587;28;20511;-59
2021/04/14 00:58:11;;;;;;;6.82;1.33;;;7.20;68.50;;;;;;5072896;28;20553;-59
2021/04/14 01:00:43;;;;;;;1.00;0.90;;;7.10;68.60;;;;;;5073078;28;20479;-59
2021/04/14 01:03:18;;;;;;;0.88;0.88;;;7.10;68.60;;;;;;5072552;28;20108;-59
2021/04/14 01:05:44;;;;;;;1.48;0.98;;;7.00;68.50;;;;;;5070373;28;21124;-59
2021/04/14 01:08:13;;;;;;;1.20;1.10;;;7.00;68.60;;;;;;5072983;28;20047;-59
2021/04/14 01:10:39;;;;;;;1.38;0.90;;;7.00;68.60;;;;;;5071906;28;20472;-59
2021/04/14 01:13:05;;;;;;;2.38;1.00;;;7.00;68.60;;;;;;5072167;28;20036;-59
2021/04/14 01:15:41;;;;;;;1.65;1.20;;;7.00;68.70;;;;;;5073146;28;20059;-59
2021/04/14 01:18:08;;;;;;;2.22;0.90;;;6.90;68.70;;;;;;5059425;28;20020;-59
2021/04/14 01:20:35;;;;;;;6.78;1.30;;;6.90;68.70;;;;;;5072888;28;20047;-59
2021/04/14 01:23:02;;;;;;;1.80;1.02;;;6.90;68.60;;;;;;5072656;28;20034;-59
2021/04/14 01:25:34;;;;;;;0.85;0.80;;;6.90;68.60;;;;;;5072062;28;20020;-59
2021/04/14 01:28:30;;;;;;;1.75;1.42;;;6.90;68.60;;;;;;5072928;28;20020;-59
2021/04/14 01:30:57;;;;;;;1.45;1.10;;;6.90;68.80;;;;;;5045015;28;20036;-59
2021/04/14 01:33:26;;;;;;;4.30;1.08;;;6.80;68.70;;;;;;5072831;28;20101;-59
2021/04/14 01:35:52;;;;;;;2.50;1.15;;;6.80;68.70;;;;;;5072512;28;20135;-59
2021/04/14 01:38:18;;;;;;;1.30;0.90;;;6.80;68.60;;;;;;5072034;28;20035;-59
2021/04/14 01:40:44;;;;;;;2.70;1.15;;;6.70;68.60;;;;;;5072739;28;20062;-59
2021/04/14 01:43:10;;;;;;;1.65;0.93;;;6.70;68.60;;;;;;5072411;28;20063;-59
2021/04/14 01:45:44;;;;;;;1.83;0.90;;;6.70;68.50;;;;;;5071982;28;20072;-59
2021/04/14 01:48:11;;;;;;;4.07;0.90;;;6.70;68.50;;;;;;5072479;28;20396;-59
2021/04/14 01:50:38;;;;;;;1.25;0.85;;;6.70;68.40;;;;;;5072474;28;20078;-59
2021/04/14 01:53:07;;;;;;;0.80;0.80;;;6.60;68.40;;;;;;5071863;28;20037;-59
2021/04/14 01:55:33;;;;;;;2.05;0.73;;;6.60;68.50;;;;;;5072595;28;20048;-59
2021/04/14 01:58:00;;;;;;;2.85;1.60;;;6.60;69.10;;;;;;5072378;28;20098;-59
2021/04/14 02:00:34;;;;;;;6.57;0.80;;;6.60;68.50;;;;;;5071620;28;20468;-59
2021/04/14 02:03:03;;;;;;;3.45;1.02;;;6.60;68.40;;;;;;5072346;28;20090;-59
2021/04/14 02:05:31;;;;;;;2.72;0.90;;;6.50;68.40;;;;;;5071940;28;20029;-59
2021/04/14 02:07:58;;;;;;;9.15;1.00;;;6.50;68.40;;;;;;5072500;28;20028;-59
2021/04/14 02:10:27;;;;;;;1.95;0.85;;;6.50;68.40;;;;;;5072475;28;20040;-59
2021/04/14 02:12:55;;;;;;;4.35;1.00;;;6.50;68.40;;;;;;5071599;28;20488;-59
2021/04/14 02:15:25;;;;;;;2.00;1.05;;;6.50;68.30;;;;;;5071978;28;20040;-59
2021/04/14 02:17:51;;;;;;;2.83;0.90;;;6.50;68.30;;;;;;5072250;28;20124;-59
2021/04/14 02:20:17;;;;;;;2.92;0.95;;;6.50;68.20;;;;;;5071579;28;20530;-59
2021/04/14 02:22:43;;;;;;;2.13;0.70;;;6.50;68.10;;;;;;5072248;28;20027;-59
2021/04/14 02:25:11;;;;;;;0.80;0.80;;;6.40;68.00;;;;;;5073964;28;20383;-59
2021/04/14 02:27:37;;;;;;;1.10;0.70;;;6.40;68.00;;;;;;5075401;28;20387;-59
2021/04/14 02:30:33;;;;;;;2.80;0.95;;;6.50;68.10;;;;;;5076096;28;20029;-59
2021/04/14 02:32:59;;;;;;;2.15;0.90;;;6.40;68.10;;;;;;5058585;28;20037;-59
2021/04/14 02:35:25;;;;;;;0.90;0.70;;;6.40;68.10;;;;;;5075308;28;20202;-59
2021/04/14 02:37:52;;;;;;;0.80;0.80;;;6.40;68.30;;;;;;5075316;28;20108;-58
2021/04/14 02:40:19;;;;;;;2.30;1.20;;;6.30;68.40;;;;;;5075377;28;20121;-59
2021/04/14 02:42:48;;;;;;;3.75;0.93;;;6.30;68.80;;;;;;5074340;28;20025;-59
2021/04/14 02:45:16;;;;;;;7.20;1.25;;;6.20;69.20;;;;;;5075741;28;20090;-59
2021/04/14 02:47:42;;;;;;;3.30;1.08;;;6.30;69.50;;;;;;5074046;28;20396;-60
2021/04/14 02:50:10;;;;;;;2.58;0.75;;;6.30;69.80;;;;;;5075738;28;20039;-60
2021/04/14 02:52:35;;;;;;;1.75;0.70;;;6.20;69.80;;;;;;5074277;28;20060;-60
2021/04/14 02:55:02;;;;;;;0.50;0.50;;;6.20;69.50;;;;;;5074622;28;20087;-71
2021/04/14 02:57:30;;;;;;;0.30;0.30;;;6.10;69.30;;;;;;5075332;28;20400;-61
2021/04/14 02:59:56;;;;;;;1.92;0.60;;;6.10;69.80;;;;;;5075388;28;20467;-60
2021/04/14 03:02:22;;;;;;;0.98;0.75;;;6.10;69.30;;;;;;5064490;28;20033;-60
2021/04/14 03:04:47;;;;;;;0.80;0.52;;;6.00;69.50;;;;;;5071716;28;20033;-60
2021/04/14 03:07:13;;;;;;;0.60;0.60;;;5.90;69.70;;;;;;5075319;28;20025;-63
2021/04/14 03:09:39;;;;;;;0.70;0.65;;;5.90;70.00;;;;;;5074964;28;20136;-60
2021/04/14 03:12:06;;;;;;;1.45;1.00;;;5.90;70.10;;;;;;5075526;28;20098;-60
2021/04/14 03:14:32;;;;;;;0.77;0.70;;;5.90;70.30;;;;;;5074970;28;20767;-60
2021/04/14 03:17:01;;;;;;;3.22;1.13;;;6.00;70.80;;;;;;5074633;28;20048;-60
2021/04/14 03:19:27;;;;;;;1.02;0.70;;;6.10;71.00;;;;;;5068187;28;20086;-60
2021/04/14 03:21:53;;;;;;;2.80;0.70;;;6.10;70.90;;;;;;5074520;28;20032;-60
2021/04/14 03:24:19;;;;;;;3.65;0.90;;;6.30;71.10;;;;;;5073661;28;20095;-60
2021/04/14 03:26:44;;;;;;;3.03;0.98;;;6.30;71.10;;;;;;5073856;28;20085;-60
2021/04/14 03:29:10;;;;;;;2.47;0.70;;;6.30;71.00;;;;;;5074075;28;20472;-60
2021/04/14 03:31:36;;;;;;;1.65;0.80;;;6.40;71.00;;;;;;5074019;28;20032;-60
2021/04/14 03:34:02;;;;;;;1.50;0.88;;;6.40;71.00;;;;;;5074446;28;20388;-60
2021/04/14 03:36:28;;;;;;;2.60;0.70;;;6.50;70.90;;;;;;5073770;28;20041;-60
2021/04/14 03:38:56;;;;;;;2.72;1.02;;;6.50;71.50;;;;;;5073597;28;20071;-60
2021/04/14 03:41:26;;;;;;;4.50;0.93;;;6.50;70.90;;;;;;5073578;28;20060;-60
2021/04/14 03:43:54;;;;;;;1.30;0.73;;;6.50;71.10;;;;;;5074064;28;20020;-60
2021/04/14 03:46:21;;;;;;;0.88;0.82;;;6.50;70.80;;;;;;5073650;28;20044;-60
2021/04/14 03:48:50;;;;;;;0.85;0.80;;;6.60;70.80;;;;;;5074213;28;20126;-60
2021/04/14 03:51:17;;;;;;;0.93;0.80;;;6.60;70.70;;;;;;5073591;28;20505;-60
2021/04/14 03:53:43;;;;;;;0.95;0.88;;;6.50;71.20;;;;;;5074528;28;20044;-60
2021/04/14 03:56:10;;;;;;;1.95;0.70;;;6.60;70.50;;;;;;5074492;28;20062;-60
2021/04/14 03:58:37;;;;;;;1.90;0.80;;;6.60;70.50;;;;;;5073479;28;20117;-60
2021/04/14 04:01:07;;;;;;;2.10;0.90;;;6.60;70.30;;;;;;5074120;28;20024;-60
2021/04/14 04:03:33;;;;;;;0.50;0.50;;;6.60;70.30;;;;;;5074172;28;20032;-60
2021/04/14 04:05:59;;;;;;;2.65;1.42;;;6.50;70.20;;;;;;5073261;28;20536;-60
2021/04/14 04:08:27;;;;;;;1.15;0.80;;;6.50;70.20;;;;;;5074269;28;20107;-60
2021/04/14 04:10:53;;;;;;;2.13;0.80;;;6.50;70.20;;;;;;5074039;28;20051;-60
2021/04/14 04:13:19;;;;;;;1.52;0.70;;;6.50;70.20;;;;;;5073314;28;20025;-60
2021/04/14 04:15:48;;;;;;;2.05;0.90;;;6.40;70.00;;;;;;5073959;28;20414;-60
2021/04/14 04:18:14;;;;;;;1.55;0.70;;;6.40;69.80;;;;;;5074026;28;20479;-60
2021/04/14 04:20:40;;;;;;;0.70;0.70;;;6.40;69.70;;;;;;5073015;28;20058;-60
2021/04/14 04:23:10;;;;;;;3.03;0.75;;;6.40;69.70;;;;;;5074172;28;20032;-60
2021/04/14 04:25:36;;;;;;;1.10;0.70;;;6.30;69.70;;;;;;5073570;28;20443;-60
2021/04/14 04:28:03;;;;;;;1.63;0.80;;;6.30;69.80;;;;;;5073345;28;20064;-60
2021/04/14 04:30:29;;;;;;;1.98;0.77;;;6.20;69.90;;;;;;5073918;28;20052;-60
2021/04/14 04:32:56;;;;;;;1.63;1.05;;;6.30;69.90;;;;;;5073524;28;20066;-60
2021/04/14 04:35:22;;;;;;;1.25;0.90;;;6.20;70.00;;;;;;5072820;28;20491;-60
2021/04/14 04:37:48;;;;;;;0.80;0.80;;;6.20;70.00;;;;;;5073472;28;20029;-60
2021/04/14 04:40:15;;;;;;;1.02;0.90;;;6.20;70.00;;;;;;5072948;28;20025;-60
2021/04/14 04:42:41;;;;;;;1.75;1.05;;;6.20;70.20;;;;;;5073473;28;20051;-60
2021/04/14 04:45:09;;;;;;;5.47;1.33;;;6.20;70.20;;;;;;5073138;28;20425;-60
2021/04/14 04:47:34;;;;;;;2.45;0.90;;;6.20;70.30;;;;;;5072149;28;20555;-60
2021/04/14 04:50:00;;;;;;;3.50;0.95;;;6.20;70.30;;;;;;5072981;28;20047;-60
2021/04/14 04:52:26;;;;;;;1.17;0.90;;;6.10;70.20;;;;;;5073468;28;20028;-60
2021/04/14 04:54:52;;;;;;;5.28;0.88;;;6.10;70.10;;;;;;5072484;28;20024;-60
2021/04/14 04:57:18;;;;;;;2.58;0.90;;;6.10;70.20;;;;;;5058715;28;20384;-60
2021/04/14 04:59:44;;;;;;;1.40;0.88;;;6.10;70.20;;;;;;5072757;28;20066;-60
2021/04/14 05:02:10;;;;;;;4.07;1.13;;;6.10;70.20;;;;;;5072477;28;20032;-61
2021/04/14 05:04:46;;;;;;;1.15;1.02;;;6.10;70.30;;;;;;5072878;28;20094;-60
2021/04/14 05:07:11;;;;;;;1.85;1.02;;;6.00;70.40;;;;;;5073361;28;20020;-60
2021/04/14 05:09:37;;;;;;;0.93;0.85;;;6.00;70.30;;;;;;5054484;28;20028;-60
2021/04/14 05:12:03;;;;;;;6.38;1.10;;;6.00;70.30;;;;;;5072916;28;20431;-60
2021/04/14 05:14:29;;;;;;;2.45;0.98;;;6.00;70.40;;;;;;5068322;28;20391;-60
2021/04/14 05:16:54;;;;;;;3.83;0.85;;;6.00;70.50;;;;;;5071854;28;20040;-60
2021/04/14 05:19:23;;;;;;;3.53;1.00;;;5.90;70.50;;;;;;5072689;28;20028;-60
2021/04/14 05:21:51;;;;;;;6.50;1.10;;;5.90;70.60;;;;;;5071570;28;20060;-60
2021/04/14 05:24:19;;;;;;;4.03;1.10;;;5.90;70.60;;;;;;5071387;28;20063;-60
2021/04/14 05:26:45;;;;;;;1.65;1.00;;;5.90;70.60;;;;;;5071680;28;20031;-60
2021/04/14 05:29:11;;;;;;;0.82;0.82;;;5.90;70.50;;;;;;5071892;28;20016;-60
2021/04/14 05:31:38;;;;;;;3.55;0.98;;;5.90;70.50;;;;;;5065849;28;20043;-60
2021/04/14 05:34:04;;;;;;;3.33;1.60;;;5.90;70.50;;;;;;5053669;28;20036;-60
2021/04/14 05:36:34;;;;;;;3.95;0.88;;;5.90;70.50;;;;;;5059964;28;20048;-60
2021/04/14 05:38:59;;;;;;;5.20;1.05;;;5.90;70.50;;;;;;5065357;28;20025;-60
2021/04/14 05:41:25;;;;;;;2.00;0.93;;;5.80;70.40;;;;;;5067362;28;20447;-60
2021/04/14 05:43:51;;;;;;;2.60;1.00;;;5.90;70.40;;;;;;5066090;28;20025;-60
2021/04/14 05:46:19;;;;;;;0.85;0.85;;;5.80;70.40;;;;;;5037384;28;20033;-60
2021/04/14 05:48:46;;;;;;;2.30;0.90;;;5.90;70.50;;;;;;5057126;28;20109;-61
2021/04/14 05:51:15;;;;;;;0.82;0.82;;;5.80;70.40;;;;;;5053907;28;20044;-61
2021/04/14 05:53:41;;;;;;;1.00;0.93;;;5.80;70.40;;;;;;5051317;28;20086;-60
2021/04/14 05:56:09;;;;;;;3.33;0.95;;;5.80;70.40;;;;;;5051017;28;20045;-60
2021/04/14 05:58:39;;;;;;;0.93;0.90;;;5.90;70.60;;;;;;5050787;28;20045;-61
2021/04/14 06:01:06;;;;;;;4.13;1.20;;;5.80;70.50;;;;;;5057389;28;20033;-61
2021/04/14 06:03:32;;;;;;;1.30;0.80;;;5.90;70.60;;;;;;5059673;28;20510;-61
2021/04/14 06:06:02;;;;;;;0.98;0.88;;;5.80;70.60;;;;;;5059136;28;20037;-62
2021/04/14 06:08:29;;;;;;;2.03;1.00;;;5.80;70.70;;;;;;5062483;28;20037;-62
2021/04/14 06:10:58;;;;;;;4.25;1.20;;;5.80;70.80;;;;;;5072653;28;20033;-62
2021/04/14 06:13:25;;;;;;;2.47;0.68;;;5.80;70.80;;;;;;5044388;28;20033;-61
2021/04/14 06:15:50;;;;;;;2.80;0.90;;;5.80;70.80;;;;;;5066725;28;20403;-61
2021/04/14 06:18:16;;;;;;;1.20;0.85;;;5.80;70.90;;;;;;5075717;28;20020;-61
2021/04/14 06:20:42;;;;;;;1.80;0.80;;;5.80;70.90;;;;;;5060067;28;20029;-61
2021/04/14 06:23:12;;;;;;;1.63;0.95;;;5.80;71.00;;;;;;5057813;28;20062;-69
2021/04/14 06:25:52;;;;;;;9.55;1.23;;;5.80;71.20;;;;;;5063851;28;20032;-61
2021/04/14 06:28:26;;;;;;;1.40;1.17;;;5.80;71.20;;;;;;5061554;28;20476;-60
2021/04/14 06:30:55;;;;;;;2.67;1.08;;;5.80;71.20;;;;;;5061118;28;20025;-60
2021/04/14 06:33:22;;;;;;;0.65;0.65;;;5.80;71.50;;;;;;5059587;28;20420;-59
2021/04/14 06:35:51;;;;;;;6.90;1.30;;;5.80;71.40;;;;;;5060714;28;20047;-61
2021/04/14 06:38:21;;;;;;;3.97;1.30;;;5.80;71.50;;;;;;5060507;28;20028;-60
2021/04/14 06:44:25;;;;;;;4.93;0.95;;;5.90;71.60;;;;;;5034125;28;20040;-60
2021/04/14 06:46:53;;;;;;;8.18;1.30;;;5.80;71.50;;;;;;5074849;28;20020;-60
2021/04/14 06:49:32;;;;;;;2.22;1.23;;;5.90;71.50;;;;;;5076721;28;20037;-60
2021/04/14 06:52:19;;;;;;;1.08;0.93;;;5.90;71.90;;;;;;5077136;28;20038;-63
2021/04/14 06:55:06;;;;;;;3.55;1.27;;;5.80;72.50;;;;;;5066618;28;20032;-60
2021/04/14 06:57:40;;;;;;;6.65;1.42;;;5.80;72.50;;;;;;5067278;28;20052;-60
2021/04/14 07:00:17;;;;;;;2.65;1.25;;;5.90;73.40;;;;;;5073147;28;20085;-60
2021/04/14 07:02:54;;;;;;;10.82;1.42;;;5.90;73.80;;;;;;5077124;28;20515;-60
2021/04/14 07:05:23;;;;;;;3.05;1.13;;;6.00;73.70;;;;;;5065989;28;20097;-60
2021/04/14 07:07:52;;;;;;;4.90;1.50;;;6.00;73.40;;;;;;5078183;28;20103;-60
2021/04/14 07:10:22;;;;;;;3.92;0.90;;;6.00;73.60;;;;;;5077821;28;20048;-61
2021/04/14 07:12:50;;;;;;;2.92;0.88;;;6.10;73.30;;;;;;5070726;28;20032;-60
2021/04/14 07:15:18;;;;;;;8.63;1.73;;;6.10;73.20;;;;;;5074076;28;20782;-60
2021/04/14 07:18:16;;;;;;;7.80;1.58;;;6.10;73.90;;;;;;5074936;28;20094;-61
2021/04/14 07:20:51;;;;;;;12.02;1.98;;;6.20;73.80;;;;;;5056905;28;20040;-61
2021/04/14 07:23:27;;;;;;;4.72;1.38;;;6.20;74.00;;;;;;5074366;28;20024;-60
2021/04/14 07:26:20;;;;;;;6.20;1.48;;;6.20;73.80;;;;;;5074714;28;20074;-60
2021/04/14 07:28:53;;;;;;;4.43;1.27;;;6.30;74.30;;;;;;5067588;28;20534;-63
2021/04/14 07:31:41;;;;;;;3.95;1.13;;;6.40;74.20;;;;;;5060724;28;20031;-64
2021/04/14 07:34:15;;;;;;;2.92;1.15;;;6.50;74.40;;;;;;5074114;28;20033;-61
2021/04/14 07:37:00;;;;;;;6.47;1.02;;;6.70;74.60;;;;;;5070910;28;20040;-62
2021/04/14 07:39:54;;;;;;;1.55;1.17;;;6.80;74.60;;;;;;5071059;28;20102;-60
2021/04/14 07:42:37;;;;;;;1.80;1.00;;;6.80;74.30;;;;;;5068412;28;20032;-61
2021/04/14 07:45:34;;;;;;;1.40;0.80;;;7.00;74.20;;;;;;5071082;28;20032;-60
2021/04/14 07:48:16;;;;;;;5.80;1.25;;;7.10;74.20;;;;;;5074024;28;20028;-61
2021/04/14 07:50:52;;;;;;;3.70;1.00;;;7.20;74.70;;;;;;5056978;28;21891;-60
2021/04/14 07:53:25;;;;;;;2.22;0.70;;;7.20;74.40;;;;;;5074008;28;20033;-60
2021/04/14 07:56:07;;;;;;;3.28;0.98;;;7.30;74.40;;;;;;5071107;28;20499;-62
2021/04/14 07:58:35;;;;;;;8.20;1.30;;;7.40;74.40;;;;;;5063233;28;20070;-61
2021/04/14 08:01:15;;;;;;;0.70;0.70;;;7.40;73.50;;;;;;5072021;28;20127;-75
2021/04/14 08:03:42;;;;;;;2.33;0.63;;;7.50;73.70;;;;;;5064448;28;20036;-60
2021/04/14 08:06:27;;;;;;;1.63;1.00;;;7.50;74.00;;;;;;5073574;28;20113;-60
2021/04/14 08:08:54;;;;;;;4.90;1.10;;;7.50;75.00;;;;;;5065357;28;20074;-60
2021/04/14 08:11:33;;;;;;;5.32;1.00;;;7.50;75.00;;;;;;5067932;28;20089;-60
2021/04/14 08:14:32;;;;;;;4.90;1.00;;;7.40;75.30;;;;;;5059807;28;20025;-60
2021/04/14 08:17:03;;;;;;;4.00;1.13;;;7.50;75.00;;;;;;5058604;28;20095;-60
2021/04/14 08:19:35;;;;;;;1.85;0.68;;;7.50;75.40;;;;;;5070397;28;20086;-61
2021/04/14 08:22:15;;;;;;;4.85;1.17;;;7.50;75.40;;;;;;5065050;28;20432;-60
2021/04/14 08:25:01;;;;;;;6.35;1.10;;;7.50;75.10;;;;;;5072439;28;20574;-61
2021/04/14 08:27:30;;;;;;;2.58;1.20;;;7.50;75.10;;;;;;5072686;28;20031;-61
2021/04/14 08:30:15;;;;;;;5.50;1.05;;;7.60;75.00;;;;;;5073747;28;20037;-60
2021/04/14 08:32:53;;;;;;;5.95;1.55;;;7.60;75.10;;;;;;5072765;28;20025;-61
2021/04/14 08:35:28;;;;;;;2.65;1.20;;;7.60;75.20;;;;;;5073570;28;20033;-60
2021/04/14 08:38:10;;;;;;;2.95;1.02;;;7.60;75.10;;;;;;5073212;28;20024;-60
2021/04/14 08:40:55;;;;;;;1.25;1.00;;;7.70;74.70;;;;;;5070782;28;20029;-61
2021/04/14 08:43:41;;;;;;;2.78;1.00;;;7.80;74.70;;;;;;5072237;28;20024;-60
2021/04/14 08:46:14;;;;;;;2.38;0.80;;;7.90;74.00;;;;;;5072991;28;20024;-61
2021/04/14 08:48:42;;;;;;;;;;;8.00;73.50;;;;;;5055355;28;20074;-60
2021/04/14 08:51:10;;;;;;;2.63;1.15;;;8.10;73.10;;;;;;5073031;28;19943;-58
2021/04/14 08:53:42;;;;;;;3.97;0.90;;;8.10;72.10;;;;;;5072358;28;20149;-58
2021/04/14 08:56:08;;;;;;;0.63;0.60;;;8.10;72.20;;;;;;5072398;28;20036;-58
2021/04/14 08:58:37;;;;;;;1.80;0.80;;;8.10;72.10;;;;;;5072851;28;20044;-58
2021/04/14 09:01:04;;;;;;;6.57;1.10;;;8.10;72.10;;;;;;5072383;28;20055;-58
2021/04/14 09:03:35;;;;;;;5.65;1.42;;;8.10;72.40;;;;;;5072842;28;20060;-58
2021/04/14 09:06:01;;;;;;;3.15;1.20;;;8.20;71.60;;;;;;5072759;28;20032;-58
2021/04/14 09:08:30;;;;;;;3.30;1.00;;;8.30;71.80;;;;;;5071505;28;20077;-58
2021/04/14 09:11:17;;;;;;;3.72;1.08;;;8.40;71.90;;;;;;5071998;28;20495;-58
2021/04/14 09:13:45;;;;;;;2.28;1.05;;;8.50;71.80;;;;;;5072261;28;20517;-58
2021/04/14 09:16:12;;;;;;;2.92;0.93;;;8.50;71.60;;;;;;5071903;28;20036;-58
2021/04/14 09:18:41;;;;;;;3.50;1.23;;;8.60;70.90;;;;;;5072559;28;20043;-58
2021/04/14 09:21:16;;;;;;;5.00;1.23;;;8.70;69.90;;;;;;5072329;28;20064;-58
2021/04/14 09:23:54;;;;;;;3.72;0.68;;;8.80;68.80;;;;;;5072298;28;20029;-58
2021/04/14 09:26:30;;;;;;;3.80;1.20;;;8.90;69.00;;;;;;5069880;28;20468;-58
2021/04/14 09:28:59;;;;;;;6.93;0.90;;;8.90;68.50;;;;;;5071618;28;20086;-59
2021/04/14 09:31:40;;;;;;;2.53;0.70;;;9.00;68.60;;;;;;5072565;28;20032;-58
2021/04/14 09:34:16;;;;;;;3.20;0.80;;;9.10;69.20;;;;;;5072061;28;20082;-58
2021/04/14 09:36:47;;;;;;;3.50;1.13;;;9.10;69.60;;;;;;5072122;28;20046;-58
2021/04/14 09:39:55;;;;;;;3.00;0.75;;;9.20;69.70;;;;;;5072536;28;20055;-58
2021/04/14 09:42:23;;;;;;;4.50;0.80;;;9.30;69.90;;;;;;4990598;28;20118;-66
2021/04/14 09:45:00;;;;;;;2.15;0.98;;;9.30;69.10;;;;;;4990400;28;20026;-61
2021/04/14 09:47:29;;;;;;;1.98;0.90;;;9.30;68.20;;;;;;5038493;28;20048;-61
2021/04/14 09:50:01;;;;;;;4.38;0.90;;;9.30;68.40;;;;;;5065450;28;20020;-61
2021/04/14 09:52:32;;;;;;;2.95;0.93;;;9.40;68.30;;;;;;5072458;28;20025;-61
2021/04/14 09:55:31;;;;;;;4.45;0.98;;;9.50;68.80;;;;;;5054058;28;20029;-60
2021/04/14 09:58:03;;;;;;;2.55;0.55;;;9.50;68.50;;;;;;5071288;28;20110;-61
2021/04/14 10:00:31;;;;;;;6.40;1.10;;;9.50;68.90;;;;;;5072203;28;20487;-61
2021/04/14 10:03:05;;;;;;;3.22;1.45;;;9.60;68.70;;;;;;5071703;28;20556;-61
2021/04/14 10:05:32;;;;;;;3.15;0.98;;;9.60;68.00;;;;;;5071679;28;20028;-62
2021/04/14 10:08:03;;;;;;;2.70;0.80;;;9.70;68.70;;;;;;5072105;28;20032;-62
2021/04/14 10:10:30;;;;;;;11.48;1.10;;;9.70;68.00;;;;;;5069587;28;20036;-61
2021/04/14 10:12:56;;;;;;;4.65;1.02;;;9.80;67.50;;;;;;5071849;28;20128;-61
2021/04/14 10:15:41;;;;;;;4.72;1.13;;;9.80;66.80;;;;;;5069684;28;20063;-63
2021/04/14 10:18:24;;;;;;;4.72;0.60;;;9.80;67.20;;;;;;5070647;28;20036;-61
2021/04/14 10:20:51;;;;;;;4.57;1.00;;;9.90;67.50;;;;;;5070272;28;20035;-61
2021/04/14 10:23:26;;;;;;;4.13;0.65;;;9.90;67.60;;;;;;5071486;28;20032;-59
2021/04/14 10:26:03;;;;;;;0.73;0.47;;;9.90;67.00;;;;;;5068005;28;20476;-59
2021/04/14 10:28:29;;;;;;;3.83;0.88;;;9.90;67.60;;;;;;5071014;28;20023;-59
2021/04/14 10:31:14;;;;;;;0.90;0.55;;;9.90;68.50;;;;;;5071158;28;20033;-59
2021/04/14 10:33:41;;;;;;;1.30;0.70;;;10.00;68.10;;;;;;5070927;28;20040;-59
2021/04/14 10:36:11;;;;;;;1.35;0.70;;;10.00;68.20;;;;;;5071431;28;20047;-59
2021/04/14 10:38:37;;;;;;;2.45;0.82;;;10.10;67.40;;;;;;5071172;28;20464;-59
2021/04/14 10:41:23;;;;;;;3.65;0.80;;;10.10;65.70;;;;;;5070738;28;20415;-59
2021/04/14 10:43:50;;;;;;;8.82;1.13;;;10.10;65.00;;;;;;5071536;28;20024;-58
2021/04/14 10:46:19;;;;;;;2.15;0.60;;;10.10;65.50;;;;;;5059272;28;20028;-59
2021/04/14 10:48:47;;;;;;;1.58;1.17;;;10.10;66.30;;;;;;5075560;28;20486;-60
2021/04/14 10:51:23;;;;;;;1.63;0.70;;;10.20;66.30;;;;;;5075425;28;20028;-59
2021/04/14 10:53:51;;;;;;;4.57;0.90;;;10.20;65.80;;;;;;5074841;28;20399;-59
2021/04/14 10:56:27;;;;;;;2.60;0.70;;;10.20;65.90;;;;;;5074455;28;20399;-59
2021/04/14 10:58:54;;;;;;;7.53;1.15;;;10.20;66.60;;;;;;5074634;28;20051;-60
2021/04/14 11:01:35;;;;;;;3.65;1.02;;;10.30;66.90;;;;;;5071796;28;20025;-59
2021/04/14 11:04:10;;;;;;;5.75;1.08;;;10.30;66.60;;;;;;5074174;28;20025;-60
2021/04/14 11:06:41;;;;;;;3.70;0.80;;;10.40;66.00;;;;;;5074882;28;20036;-59
2021/04/14 11:09:08;;;;;;;4.53;0.77;;;10.40;66.60;;;;;;5073861;28;20055;-58
2021/04/14 11:11:36;;;;;;;4.57;0.47;;;10.40;66.90;;;;;;5074423;28;20532;-59
2021/04/14 11:14:04;;;;;;;1.55;0.50;;;10.40;67.10;;;;;;5070845;28;20472;-61
2021/04/14 11:16:32;;;;;;;5.93;0.80;;;10.50;66.70;;;;;;5071649;28;20058;-59
2021/04/14 11:18:57;;;;;;;3.60;0.60;;;10.50;65.70;;;;;;5068848;28;20441;-59
2021/04/14 11:21:30;;;;;;;3.28;0.65;;;10.60;65.60;;;;;;5069549;28;20060;-59
2021/04/14 11:24:22;;;;;;;1.58;0.80;;;10.60;65.20;;;;;;5074072;28;20021;-59
2021/04/14 11:26:55;;;;;;;5.18;1.27;;;10.60;65.70;;;;;;5069926;28;20140;-59
2021/04/14 11:29:30;;;;;;;0.30;0.30;;;10.60;66.20;;;;;;5072837;28;20028;-59
2021/04/14 11:31:59;;;;;;;5.55;1.30;;;10.60;66.60;;;;;;5072649;28;20129;-59
2021/04/14 11:34:33;;;;;;;8.20;1.17;;;10.70;66.10;;;;;;5068599;28;20032;-59
2021/04/14 11:36:58;;;;;;;4.13;1.20;;;10.70;65.90;;;;;;5068263;28;20040;-59
2021/04/14 11:39:26;;;;;;;6.85;1.35;;;10.70;65.40;;;;;;5067024;28;20033;-59
2021/04/14 11:42:17;;;;;;;4.65;0.88;;;10.70;63.60;;;;;;5070283;28;20036;-59
2021/04/14 11:44:52;;;;;;;4.07;1.50;;;10.80;63.80;;;;;;5073117;28;20028;-59
2021/04/14 11:47:34;;;;;;;2.33;0.77;;;10.80;63.80;;;;;;5073546;28;20060;-59
2021/04/14 11:50:19;;;;;;;6.38;0.68;;;10.80;63.50;;;;;;5072370;28;20034;-59
2021/04/14 11:52:54;;;;;;;3.08;0.60;;;10.80;64.30;;;;;;5071282;28;20901;-59
2021/04/14 11:55:20;;;;;;;3.40;1.08;;;10.80;64.00;;;;;;5070930;28;20030;-59
2021/04/14 11:57:51;;;;;;;5.68;1.02;;;10.80;64.20;;;;;;5064117;28;20044;-59
2021/04/14 12:00:31;;;;;;;2.03;0.90;;;10.80;63.80;;;;;;5073713;28;20419;-59
2021/04/14 12:03:13;;;;;;;4.70;1.10;;;10.80;64.90;;;;;;5072697;28;20131;-60
2021/04/14 12:05:39;;;;;;;7.43;1.13;;;10.90;64.30;;;;;;5063825;28;20085;-68
2021/04/14 12:08:04;;;;;;;4.00;0.80;;;10.90;64.20;;;;;;5073216;28;20430;-59
2021/04/14 12:10:30;;;;;;;6.50;0.60;;;11.00;64.10;;;;;;5065671;28;20025;-59
2021/04/14 12:12:56;;;;;;;0.98;0.57;;;10.90;64.70;;;;;;5067227;28;20115;-59
2021/04/14 12:15:22;;;;;;;4.05;0.70;;;10.90;64.30;;;;;;5063186;28;20021;-59
2021/04/14 12:17:48;;;;;;;1.15;0.50;;;10.90;64.90;;;;;;5062254;28;20032;-61
2021/04/14 12:20:14;;;;;;;4.95;0.90;;;11.00;65.50;;;;;;5057117;28;21511;-59
2021/04/14 12:22:40;;;;;;;2.35;0.90;;;11.00;64.80;;;;;;5060743;28;20051;-59
2021/04/14 12:25:08;;;;;;;7.38;1.05;;;11.00;63.70;;;;;;5057359;28;20060;-59
2021/04/14 12:27:33;;;;;;;9.70;1.00;;;11.00;64.20;;;;;;5059841;28;20029;-59
2021/04/14 12:30:04;;;;;;;4.95;0.95;;;11.00;65.00;;;;;;5059766;28;20033;-59
2021/04/14 12:32:33;;;;;;;3.13;1.05;;;11.00;64.70;;;;;;5062131;28;20021;-59
2021/04/14 12:34:58;;;;;;;1.45;0.52;;;11.00;64.60;;;;;;5057799;28;20043;-59
2021/04/14 12:37:24;;;;;;;2.40;0.63;;;11.00;64.60;;;;;;5056588;28;20033;-59
2021/04/14 12:39:50;;;;;;;1.50;0.80;;;11.00;65.30;;;;;;5058539;28;20024;-59
2021/04/14 12:42:15;;;;;;;2.88;1.27;;;11.00;64.30;;;;;;5056995;28;20107;-68
2021/04/14 12:44:41;;;;;;;1.88;0.80;;;11.10;64.70;;;;;;5071446;28;20480;-61
2021/04/14 12:47:14;;;;;;;1.05;0.57;;;11.10;65.30;;;;;;5071936;28;20480;-60
2021/04/14 12:49:44;;;;;;;3.40;0.82;;;11.10;65.00;;;;;;5071386;28;20551;-60
2021/04/14 12:52:34;;;;;;;0.63;0.60;;;11.00;65.60;;;;;;5054222;28;20036;-61
2021/04/14 12:55:01;;;;;;;2.08;0.43;;;11.10;65.40;;;;;;5071414;28;20107;-63
2021/04/14 12:57:30;;;;;;;0.40;0.40;;;11.10;67.10;;;;;;5069729;28;20045;-58
2021/04/14 13:00:03;;;;;;;7.93;1.25;;;11.10;68.30;;;;;;5087785;28;20552;-60
2021/04/14 13:02:32;;;;;;;4.10;1.05;;;11.10;67.90;;;;;;5089615;28;20059;-61
2021/04/14 13:05:00;;;;;;;0.80;0.52;;;11.20;68.70;;;;;;5092113;28;20605;-59
2021/04/14 13:07:47;;;;;;;1.33;0.60;;;11.20;67.90;;;;;;5091401;28;20432;-60
2021/04/14 13:10:14;;;;;;;5.30;0.60;;;11.30;67.00;;;;;;5091532;28;20020;-61
2021/04/14 13:12:40;;;;;;;3.85;1.17;;;11.30;67.10;;;;;;5092025;28;20111;-61
2021/04/14 13:15:11;;;;;;;3.75;1.05;;;11.30;66.60;;;;;;5091078;28;20119;-61
2021/04/14 13:17:51;;;;;;;0.43;0.43;;;11.30;66.90;;;;;;5090346;28;20658;-61